Nearby METAR Reports

 

KHQM - Hoquiam,WA, USA
Updated: 07/09/2020 6:53pm
Clear
Clear
 Wind from WNW
Wind: WNW 13 mph , 20 km/h
Temperature: 63°F , 17°C
Dew Point: 52°F , 11°C
Humidity: 68%
Barometer: 30.06 inHg , 1017.9 hPa
Clouds: Clear
Visibility: 10 miles , 16 km
2020/07/10 01:53 KHQM 100153Z AUTO 30011KT 10SM CLR 17/11 A3006 RMK AO2 SLP183 T01670106